Francis C. Settoon — WDD4746 — position and weather

sailwx.info

Track history (hours):
 
Tides and Currents Weather Stations Pressure Air Temp Water Temp Dewpoint Dewpoint Depression Visibility Wind Speed Wind Dir Waves Ship Positions

Francis C. Settoon

Owner: Settoon Towing, LLC, Gibson, LA. More information available from US FCC via Universal Licensing System and Coast Guard Vessel Documentation Center.

Last reported at 2018-Jun-18 22:31 UTC. Time now 2018-Jun-18 22:45 UTC.
Position N 29°59' W 093°13'.

Length 16 m; draft 6 m.

Type: Ship (hazmat cat B). MMSI: 367003790.

Date/timePositionNaut miles runAvg speedWind from/ knotsBaromVisibWave heightAir tempDewpointWater temp
2018-Jun-18 22:31N 29°59' W 093°13'3 6.2
2018-Jun-18 22:00N 29°57' W 093°10'5 0.1
2018-Jun-16 18:57N 29°56' W 093°05'2 3.8
2018-Jun-16 18:29N 29°56' W 093°07'2 4.7
2018-Jun-16 17:59N 29°56' W 093°09'3 5.3
2018-Jun-16 17:30N 29°58' W 093°11'1 2.9
2018-Jun-16 17:00N 29°59' W 093°13'1 2.9
2018-Jun-16 16:30N 30°00' W 093°14'1 3.0
2018-Jun-16 16:00N 30°02' W 093°14'2 3.4
2018-Jun-16 15:30N 30°03' W 093°16'3 5.6
2018-Jun-16 15:00N 30°05' W 093°17'0 0.8
2018-Jun-16 14:30N 30°05' W 093°18'0 0.8
2018-Jun-16 14:00N 30°06' W 093°18'0 0.2
2018-Jun-16 13:27N 30°06' W 093°18'0 0.0
2018-Jun-16 13:00N 30°06' W 093°18'0 0.0
2018-Jun-16 12:30N 30°06' W 093°18'0 0.0
2018-Jun-16 12:00N 30°06' W 093°18'0 0.0
2018-Jun-16 11:30N 30°06' W 093°18'0 0.0
2018-Jun-16 10:59N 30°06' W 093°18'0 0.0
2018-Jun-16 10:30N 30°06' W 093°18'0 0.0
2018-Jun-16 10:00N 30°06' W 093°18'0 0.0
2018-Jun-16 09:30N 30°06' W 093°18'0 0.0
2018-Jun-16 09:00N 30°06' W 093°18'0 0.0
2018-Jun-16 08:30N 30°06' W 093°18'0 0.0
2018-Jun-16 08:00N 30°06' W 093°18'0 0.0
2018-Jun-16 07:30N 30°06' W 093°18'0 0.0
2018-Jun-16 07:00N 30°06' W 093°18'0 0.0
2018-Jun-16 06:29N 30°06' W 093°18'0 0.0
2018-Jun-16 06:00N 30°06' W 093°18'0 0.0
2018-Jun-16 05:30N 30°06' W 093°18'0 0.0
2018-Jun-16 04:59N 30°06' W 093°18'0 0.0
2018-Jun-16 04:30N 30°06' W 093°18'0 0.0
2018-Jun-16 04:00N 30°06' W 093°18'0 0.0
2018-Jun-16 03:29N 30°06' W 093°18'0 0.0
2018-Jun-16 03:00N 30°06' W 093°18'0 0.0
2018-Jun-16 02:30N 30°06' W 093°18'0 0.0
2018-Jun-16 02:00N 30°06' W 093°18'0 0.0
2018-Jun-16 01:29N 30°06' W 093°18'0 0.0
2018-Jun-16 01:00N 30°06' W 093°18'0 0.0
2018-Jun-16 00:30N 30°06' W 093°18'0 0.0
2018-Jun-16 00:00N 30°06' W 093°18'0 0.0
2018-Jun-15 23:30N 30°06' W 093°18'0 0.0
2018-Jun-15 23:00N 30°06' W 093°18'0 0.0
2018-Jun-15 22:30N 30°06' W 093°18'0 0.0
2018-Jun-15 21:58N 30°06' W 093°18'0 0.0
2018-Jun-15 21:30N 30°06' W 093°18'0 0.0
2018-Jun-15 20:59N 30°06' W 093°18'0 0.0
2018-Jun-15 20:30N 30°06' W 093°18'1 1.3
2018-Jun-15 20:00N 30°06' W 093°19'2 4.1
2018-Jun-15 19:30N 30°08' W 093°19'0 0.1
2018-Jun-15 19:00N 30°08' W 093°19'0 0.0
2018-Jun-15 18:30N 30°08' W 093°19'0 0.0
2018-Jun-15 18:00N 30°08' W 093°19'0 0.0
2018-Jun-15 17:30N 30°08' W 093°19'0 0.0
2018-Jun-15 17:00N 30°08' W 093°19'0 0.0
2018-Jun-15 16:30N 30°08' W 093°19'0 0.0
2018-Jun-15 16:00N 30°08' W 093°19'0 0.0
2018-Jun-15 15:30N 30°08' W 093°19'0 0.0
2018-Jun-15 15:00N 30°08' W 093°19'0 0.0
2018-Jun-15 14:30N 30°08' W 093°19'0 0.0
2018-Jun-15 14:00N 30°08' W 093°19'0 0.0
2018-Jun-15 13:30N 30°08' W 093°19'0 0.0
2018-Jun-15 13:00N 30°08' W 093°19'0 0.0
2018-Jun-15 12:30N 30°08' W 093°19'0 0.0
2018-Jun-15 12:00N 30°08' W 093°19'0 0.0
2018-Jun-15 11:30N 30°08' W 093°19'0 0.1
2018-Jun-15 11:00N 30°08' W 093°19'0 0.0
2018-Jun-15 10:30N 30°08' W 093°19'0 0.0
2018-Jun-15 10:00N 30°08' W 093°19'0 0.0
2018-Jun-15 09:29N 30°08' W 093°19'0 0.0
2018-Jun-15 09:00N 30°08' W 093°19'0 0.0
2018-Jun-15 08:30N 30°08' W 093°19'0 0.0
2018-Jun-15 08:00N 30°08' W 093°19'0 0.0
2018-Jun-15 07:30N 30°08' W 093°19'0 0.0
2018-Jun-15 07:00N 30°08' W 093°19'0 0.5
2018-Jun-15 06:30N 30°08' W 093°20'2 4.6
2018-Jun-15 06:00N 30°06' W 093°19'2 3.1
2018-Jun-15 05:30N 30°05' W 093°18'1 1.3
2018-Jun-15 05:00N 30°05' W 093°17'0 0.9
2018-Jun-15 04:29N 30°04' W 093°16'1 1.2
2018-Jun-15 04:00N 30°04' W 093°16'0 0.0
2018-Jun-15 03:30N 30°04' W 093°16'0 0.0
2018-Jun-15 03:00N 30°04' W 093°16'0 0.0
2018-Jun-15 02:30N 30°04' W 093°16'0 0.0
2018-Jun-15 02:00N 30°04' W 093°16'0 0.0
2018-Jun-15 01:30N 30°04' W 093°16'0 0.0
2018-Jun-15 01:00N 30°04' W 093°16'0 0.0
2018-Jun-15 00:30N 30°04' W 093°16'0 0.0
2018-Jun-15 00:00N 30°04' W 093°16'0 0.0
2018-Jun-14 23:30N 30°04' W 093°16'0 0.0
2018-Jun-14 23:00N 30°04' W 093°16'0 0.0
2018-Jun-14 22:30N 30°04' W 093°16'0 0.0
2018-Jun-14 22:00N 30°04' W 093°16'0 0.0
2018-Jun-14 21:30N 30°04' W 093°16'0 0.0
2018-Jun-14 21:00N 30°04' W 093°16'0 0.0
2018-Jun-14 20:30N 30°04' W 093°16'0 0.0
2018-Jun-14 20:00N 30°04' W 093°16'0 0.0
2018-Jun-14 19:30N 30°04' W 093°16'0 0.0
2018-Jun-14 19:00N 30°04' W 093°16'0 0.0
2018-Jun-14 18:30N 30°04' W 093°16'0 0.0
2018-Jun-14 18:00N 30°04' W 093°16'0 0.0
2018-Jun-14 17:30N 30°04' W 093°16'0 0.0
2018-Jun-14 17:00N 30°04' W 093°16'0 0.0
2018-Jun-14 16:30N 30°04' W 093°16'0 0.8
2018-Jun-14 16:00N 30°04' W 093°16'2 3.7
2018-Jun-14 15:30N 30°02' W 093°15'2 4.6
2018-Jun-14 15:00N 30°00' W 093°14'2 4.6
2018-Jun-14 14:30N 29°58' W 093°12'2 4.3
2018-Jun-14 13:59N 29°57' W 093°10'35 4.4
2018-Jun-14 05:59N 29°54' W 092°29'3 5.7
2018-Jun-14 05:30N 29°53' W 092°26'3 5.5
2018-Jun-14 04:57N 29°53' W 092°23'2 5.3
2018-Jun-14 04:30N 29°51' W 092°21'3 5.4
2018-Jun-14 04:00N 29°50' W 092°18'3 5.3
2018-Jun-14 03:30N 29°48' W 092°16'3 5.4
2018-Jun-14 03:00N 29°47' W 092°13'1 1.0
2018-Jun-14 02:30N 29°47' W 092°12'1 2.3
2018-Jun-14 02:00N 29°47' W 092°11'3 5.4
2018-Jun-14 01:30N 29°47' W 092°08'3 6.1
2018-Jun-14 01:00N 29°48' W 092°05'9 0.2
2018-Jun-12 09:28N 29°51' W 091°55'3 6.2
2018-Jun-12 09:00N 29°50' W 091°58'3 6.4
2018-Jun-12 08:30N 29°49' W 092°01'3 6.1
2018-Jun-12 08:00N 29°48' W 092°05'3 6.6
2018-Jun-12 07:30N 29°47' W 092°08'3 5.9
2018-Jun-12 07:00N 29°47' W 092°12'1 1.5
2018-Jun-12 06:30N 29°47' W 092°12'0 0.3
2018-Jun-12 06:00N 29°47' W 092°13'1 3.0
2018-Jun-12 05:30N 29°48' W 092°14'3 5.7
2018-Jun-12 05:00N 29°49' W 092°17'3 6.0
2018-Jun-12 04:30N 29°51' W 092°20'21 0.6
2018-Jun-10 18:56N 29°41' W 092°41'27 0.9
2018-Jun-09 13:11N 29°56' W 093°07'2 6.3
2018-Jun-09 12:55N 29°56' W 093°09'3 6.4
2018-Jun-09 12:30N 29°58' W 093°11'3 6.6
2018-Jun-09 12:00N 30°00' W 093°14'3 5.8
2018-Jun-09 11:30N 30°02' W 093°16'3 6.2
2018-Jun-09 11:00N 30°05' W 093°17'1 1.8
2018-Jun-09 10:28N 30°06' W 093°18'0 0.0
2018-Jun-09 10:00N 30°06' W 093°18'0 0.0
2018-Jun-09 09:30N 30°06' W 093°18'0 0.0
2018-Jun-09 09:00N 30°06' W 093°18'0 0.0
2018-Jun-09 08:28N 30°06' W 093°18'0 0.0
2018-Jun-09 08:00N 30°06' W 093°18'0 0.0
2018-Jun-09 07:30N 30°06' W 093°18'0 0.0
2018-Jun-09 07:00N 30°06' W 093°18'0 0.0
2018-Jun-09 06:30N 30°06' W 093°18'0 0.0
2018-Jun-09 06:00N 30°06' W 093°18'0 0.0
2018-Jun-09 05:30N 30°06' W 093°18'1 2.7
2018-Jun-09 05:00N 30°06' W 093°20'2 4.3
2018-Jun-09 04:30N 30°08' W 093°19'0 0.0
2018-Jun-09 04:00N 30°08' W 093°19'0 0.0
2018-Jun-09 03:30N 30°08' W 093°19'0 0.0
2018-Jun-09 03:00N 30°08' W 093°19'0 0.0
2018-Jun-09 02:30N 30°08' W 093°19'0 0.0
2018-Jun-09 02:00N 30°08' W 093°19'0 0.0
2018-Jun-09 01:30N 30°08' W 093°19'0 0.0
2018-Jun-09 01:00N 30°08' W 093°19'0 0.0
2018-Jun-09 00:30N 30°08' W 093°19'0 0.0
2018-Jun-09 00:00N 30°08' W 093°19'0 0.0
2018-Jun-08 23:30N 30°08' W 093°19'0 0.0
2018-Jun-08 23:00N 30°08' W 093°19'  
Track history (hours):
 
Tides and Currents Weather Stations Pressure Air Temp Water Temp Dewpoint Dewpoint Depression Visibility Wind Speed Wind Dir Waves Ship Positions

Francis C. Settoon

Owner: Settoon Towing, LLC, Gibson, LA. More information available from US FCC via Universal Licensing System and Coast Guard Vessel Documentation Center.

Last reported at 2018-Jun-18 22:31 UTC. Time now 2018-Jun-18 22:45 UTC.
Position N 29°59' W 093°13'.

Length 16 m; draft 6 m.

Type: Ship (hazmat cat B). MMSI: 367003790.

Date/timePositionNaut miles runAvg speedWind from/ knotsBaromVisibWave heightAir tempDewpointWater temp
2018-Jun-18 22:31N 29°59' W 093°13'3 6.2
2018-Jun-18 22:00N 29°57' W 093°10'5 0.1
2018-Jun-16 18:57N 29°56' W 093°05'2 3.8
2018-Jun-16 18:29N 29°56' W 093°07'2 4.7
2018-Jun-16 17:59N 29°56' W 093°09'3 5.3
2018-Jun-16 17:30N 29°58' W 093°11'1 2.9
2018-Jun-16 17:00N 29°59' W 093°13'1 2.9
2018-Jun-16 16:30N 30°00' W 093°14'1 3.0
2018-Jun-16 16:00N 30°02' W 093°14'2 3.4
2018-Jun-16 15:30N 30°03' W 093°16'3 5.6
2018-Jun-16 15:00N 30°05' W 093°17'0 0.8
2018-Jun-16 14:30N 30°05' W 093°18'0 0.8
2018-Jun-16 14:00N 30°06' W 093°18'0 0.2
2018-Jun-16 13:27N 30°06' W 093°18'0 0.0
2018-Jun-16 13:00N 30°06' W 093°18'0 0.0
2018-Jun-16 12:30N 30°06' W 093°18'0 0.0
2018-Jun-16 12:00N 30°06' W 093°18'0 0.0
2018-Jun-16 11:30N 30°06' W 093°18'0 0.0
2018-Jun-16 10:59N 30°06' W 093°18'0 0.0
2018-Jun-16 10:30N 30°06' W 093°18'0 0.0
2018-Jun-16 10:00N 30°06' W 093°18'0 0.0
2018-Jun-16 09:30N 30°06' W 093°18'0 0.0
2018-Jun-16 09:00N 30°06' W 093°18'0 0.0
2018-Jun-16 08:30N 30°06' W 093°18'0 0.0
2018-Jun-16 08:00N 30°06' W 093°18'0 0.0
2018-Jun-16 07:30N 30°06' W 093°18'0 0.0
2018-Jun-16 07:00N 30°06' W 093°18'0 0.0
2018-Jun-16 06:29N 30°06' W 093°18'0 0.0
2018-Jun-16 06:00N 30°06' W 093°18'0 0.0
2018-Jun-16 05:30N 30°06' W 093°18'0 0.0
2018-Jun-16 04:59N 30°06' W 093°18'0 0.0
2018-Jun-16 04:30N 30°06' W 093°18'0 0.0
2018-Jun-16 04:00N 30°06' W 093°18'0 0.0
2018-Jun-16 03:29N 30°06' W 093°18'0 0.0
2018-Jun-16 03:00N 30°06' W 093°18'0 0.0
2018-Jun-16 02:30N 30°06' W 093°18'0 0.0
2018-Jun-16 02:00N 30°06' W 093°18'0 0.0
2018-Jun-16 01:29N 30°06' W 093°18'0 0.0
2018-Jun-16 01:00N 30°06' W 093°18'0 0.0
2018-Jun-16 00:30N 30°06' W 093°18'0 0.0
2018-Jun-16 00:00N 30°06' W 093°18'0 0.0
2018-Jun-15 23:30N 30°06' W 093°18'0 0.0
2018-Jun-15 23:00N 30°06' W 093°18'0 0.0
2018-Jun-15 22:30N 30°06' W 093°18'0 0.0
2018-Jun-15 21:58N 30°06' W 093°18'0 0.0
2018-Jun-15 21:30N 30°06' W 093°18'0 0.0
2018-Jun-15 20:59N 30°06' W 093°18'0 0.0
2018-Jun-15 20:30N 30°06' W 093°18'1 1.3
2018-Jun-15 20:00N 30°06' W 093°19'2 4.1
2018-Jun-15 19:30N 30°08' W 093°19'0 0.1
2018-Jun-15 19:00N 30°08' W 093°19'0 0.0
2018-Jun-15 18:30N 30°08' W 093°19'0 0.0
2018-Jun-15 18:00N 30°08' W 093°19'0 0.0
2018-Jun-15 17:30N 30°08' W 093°19'0 0.0
2018-Jun-15 17:00N 30°08' W 093°19'0 0.0
2018-Jun-15 16:30N 30°08' W 093°19'0 0.0
2018-Jun-15 16:00N 30°08' W 093°19'0 0.0
2018-Jun-15 15:30N 30°08' W 093°19'0 0.0
2018-Jun-15 15:00N 30°08' W 093°19'0 0.0
2018-Jun-15 14:30N 30°08' W 093°19'0 0.0
2018-Jun-15 14:00N 30°08' W 093°19'0 0.0
2018-Jun-15 13:30N 30°08' W 093°19'0 0.0
2018-Jun-15 13:00N 30°08' W 093°19'0 0.0
2018-Jun-15 12:30N 30°08' W 093°19'0 0.0
2018-Jun-15 12:00N 30°08' W 093°19'0 0.0
2018-Jun-15 11:30N 30°08' W 093°19'0 0.1
2018-Jun-15 11:00N 30°08' W 093°19'0 0.0
2018-Jun-15 10:30N 30°08' W 093°19'0 0.0
2018-Jun-15 10:00N 30°08' W 093°19'0 0.0
2018-Jun-15 09:29N 30°08' W 093°19'0 0.0
2018-Jun-15 09:00N 30°08' W 093°19'0 0.0
2018-Jun-15 08:30N 30°08' W 093°19'0 0.0
2018-Jun-15 08:00N 30°08' W 093°19'0 0.0
2018-Jun-15 07:30N 30°08' W 093°19'0 0.0
2018-Jun-15 07:00N 30°08' W 093°19'0 0.5
2018-Jun-15 06:30N 30°08' W 093°20'2 4.6
2018-Jun-15 06:00N 30°06' W 093°19'2 3.1
2018-Jun-15 05:30N 30°05' W 093°18'1 1.3
2018-Jun-15 05:00N 30°05' W 093°17'0 0.9
2018-Jun-15 04:29N 30°04' W 093°16'1 1.2
2018-Jun-15 04:00N 30°04' W 093°16'0 0.0
2018-Jun-15 03:30N 30°04' W 093°16'0 0.0
2018-Jun-15 03:00N 30°04' W 093°16'0 0.0
2018-Jun-15 02:30N 30°04' W 093°16'0 0.0
2018-Jun-15 02:00N 30°04' W 093°16'0 0.0
2018-Jun-15 01:30N 30°04' W 093°16'0 0.0
2018-Jun-15 01:00N 30°04' W 093°16'0 0.0
2018-Jun-15 00:30N 30°04' W 093°16'0 0.0
2018-Jun-15 00:00N 30°04' W 093°16'0 0.0
2018-Jun-14 23:30N 30°04' W 093°16'0 0.0
2018-Jun-14 23:00N 30°04' W 093°16'0 0.0
2018-Jun-14 22:30N 30°04' W 093°16'0 0.0
2018-Jun-14 22:00N 30°04' W 093°16'0 0.0
2018-Jun-14 21:30N 30°04' W 093°16'0 0.0
2018-Jun-14 21:00N 30°04' W 093°16'0 0.0
2018-Jun-14 20:30N 30°04' W 093°16'0 0.0
2018-Jun-14 20:00N 30°04' W 093°16'0 0.0
2018-Jun-14 19:30N 30°04' W 093°16'0 0.0
2018-Jun-14 19:00N 30°04' W 093°16'0 0.0
2018-Jun-14 18:30N 30°04' W 093°16'0 0.0
2018-Jun-14 18:00N 30°04' W 093°16'0 0.0
2018-Jun-14 17:30N 30°04' W 093°16'0 0.0
2018-Jun-14 17:00N 30°04' W 093°16'0 0.0
2018-Jun-14 16:30N 30°04' W 093°16'0 0.8
2018-Jun-14 16:00N 30°04' W 093°16'2 3.7
2018-Jun-14 15:30N 30°02' W 093°15'2 4.6
2018-Jun-14 15:00N 30°00' W 093°14'2 4.6
2018-Jun-14 14:30N 29°58' W 093°12'2 4.3
2018-Jun-14 13:59N 29°57' W 093°10'35 4.4
2018-Jun-14 05:59N 29°54' W 092°29'3 5.7
2018-Jun-14 05:30N 29°53' W 092°26'3 5.5
2018-Jun-14 04:57N 29°53' W 092°23'2 5.3
2018-Jun-14 04:30N 29°51' W 092°21'3 5.4
2018-Jun-14 04:00N 29°50' W 092°18'3 5.3
2018-Jun-14 03:30N 29°48' W 092°16'3 5.4
2018-Jun-14 03:00N 29°47' W 092°13'1 1.0
2018-Jun-14 02:30N 29°47' W 092°12'1 2.3
2018-Jun-14 02:00N 29°47' W 092°11'3 5.4
2018-Jun-14 01:30N 29°47' W 092°08'3 6.1
2018-Jun-14 01:00N 29°48' W 092°05'9 0.2
2018-Jun-12 09:28N 29°51' W 091°55'3 6.2
2018-Jun-12 09:00N 29°50' W 091°58'3 6.4
2018-Jun-12 08:30N 29°49' W 092°01'3 6.1
2018-Jun-12 08:00N 29°48' W 092°05'3 6.6
2018-Jun-12 07:30N 29°47' W 092°08'3 5.9
2018-Jun-12 07:00N 29°47' W 092°12'1 1.5
2018-Jun-12 06:30N 29°47' W 092°12'0 0.3
2018-Jun-12 06:00N 29°47' W 092°13'1 3.0
2018-Jun-12 05:30N 29°48' W 092°14'3 5.7
2018-Jun-12 05:00N 29°49' W 092°17'3 6.0
2018-Jun-12 04:30N 29°51' W 092°20'21 0.6
2018-Jun-10 18:56N 29°41' W 092°41'27 0.9
2018-Jun-09 13:11N 29°56' W 093°07'2 6.3
2018-Jun-09 12:55N 29°56' W 093°09'3 6.4
2018-Jun-09 12:30N 29°58' W 093°11'3 6.6
2018-Jun-09 12:00N 30°00' W 093°14'3 5.8
2018-Jun-09 11:30N 30°02' W 093°16'3 6.2
2018-Jun-09 11:00N 30°05' W 093°17'1 1.8
2018-Jun-09 10:28N 30°06' W 093°18'0 0.0
2018-Jun-09 10:00N 30°06' W 093°18'0 0.0
2018-Jun-09 09:30N 30°06' W 093°18'0 0.0
2018-Jun-09 09:00N 30°06' W 093°18'0 0.0
2018-Jun-09 08:28N 30°06' W 093°18'0 0.0
2018-Jun-09 08:00N 30°06' W 093°18'0 0.0
2018-Jun-09 07:30N 30°06' W 093°18'0 0.0
2018-Jun-09 07:00N 30°06' W 093°18'0 0.0
2018-Jun-09 06:30N 30°06' W 093°18'0 0.0
2018-Jun-09 06:00N 30°06' W 093°18'0 0.0
2018-Jun-09 05:30N 30°06' W 093°18'1 2.7
2018-Jun-09 05:00N 30°06' W 093°20'2 4.3
2018-Jun-09 04:30N 30°08' W 093°19'0 0.0
2018-Jun-09 04:00N 30°08' W 093°19'0 0.0
2018-Jun-09 03:30N 30°08' W 093°19'0 0.0
2018-Jun-09 03:00N 30°08' W 093°19'0 0.0
2018-Jun-09 02:30N 30°08' W 093°19'0 0.0
2018-Jun-09 02:00N 30°08' W 093°19'0 0.0
2018-Jun-09 01:30N 30°08' W 093°19'0 0.0
2018-Jun-09 01:00N 30°08' W 093°19'0 0.0
2018-Jun-09 00:30N 30°08' W 093°19'0 0.0
2018-Jun-09 00:00N 30°08' W 093°19'0 0.0
2018-Jun-08 23:30N 30°08' W 093°19'0 0.0
2018-Jun-08 23:00N 30°08' W 093°19'  

Dump ship's entire track history